createdAt,value
2022-09-12T00:00:37.370Z,16.98
2022-09-12T00:01:37.421Z,17.01
2022-09-12T00:02:37.386Z,17.00
2022-09-12T00:03:37.396Z,17.03
2022-09-12T00:04:37.383Z,16.94
2022-09-12T00:05:37.379Z,16.93
2022-09-12T00:06:37.389Z,16.88
2022-09-12T00:07:37.392Z,16.97
2022-09-12T00:08:37.418Z,16.98
2022-09-12T00:09:37.396Z,16.93
2022-09-12T00:10:37.434Z,16.83
2022-09-12T00:11:37.385Z,16.89
2022-09-12T00:12:37.402Z,16.94
2022-09-12T00:13:41.439Z,16.82
2022-09-12T00:14:37.407Z,16.76
2022-09-12T00:15:37.405Z,16.78
2022-09-12T00:16:37.487Z,16.78
2022-09-12T00:17:37.411Z,16.82
2022-09-12T00:18:37.415Z,16.76
2022-09-12T00:19:37.398Z,16.75
2022-09-12T00:20:37.417Z,16.70
2022-09-12T00:21:37.418Z,16.60
2022-09-12T00:22:37.631Z,16.60
2022-09-12T00:23:37.418Z,16.67
2022-09-12T00:24:37.427Z,16.64
2022-09-12T00:25:37.447Z,16.57
2022-09-12T00:26:37.429Z,16.61
2022-09-12T00:27:37.413Z,16.60
2022-09-12T00:28:45.259Z,16.58
2022-09-12T00:29:45.044Z,16.57
2022-09-12T00:30:44.468Z,16.57
2022-09-12T00:31:37.462Z,16.43
2022-09-12T00:32:37.442Z,16.46
2022-09-12T00:33:37.418Z,16.46
2022-09-12T00:34:37.433Z,16.45
2022-09-12T00:35:37.439Z,16.46
2022-09-12T00:36:37.436Z,16.46
2022-09-12T00:37:37.445Z,16.41
2022-09-12T00:38:37.438Z,16.39
2022-09-12T00:39:37.464Z,16.42
2022-09-12T00:40:45.123Z,16.45
2022-09-12T00:41:37.443Z,16.45
2022-09-12T00:42:44.476Z,16.38
2022-09-12T00:43:45.177Z,16.42
2022-09-12T00:44:37.437Z,16.30
2022-09-12T00:45:37.551Z,16.31
2022-09-12T00:46:37.457Z,16.25
2022-09-12T00:47:37.445Z,16.24
2022-09-12T00:48:37.463Z,16.30
2022-09-12T00:49:37.458Z,16.31
2022-09-12T00:50:37.444Z,16.24
2022-09-12T00:51:37.446Z,16.25
2022-09-12T00:52:37.489Z,16.21
2022-09-12T00:53:37.480Z,16.20
2022-09-12T00:54:37.451Z,16.20
2022-09-12T00:55:37.464Z,16.15
2022-09-12T00:56:37.451Z,16.20
2022-09-12T00:57:37.452Z,16.20
2022-09-12T00:58:37.493Z,16.17
2022-09-12T00:59:37.462Z,16.17
2022-09-12T01:00:37.458Z,16.21
2022-09-12T01:01:37.508Z,16.20
2022-09-12T01:02:37.470Z,16.11
2022-09-12T01:03:37.463Z,16.17
2022-09-12T01:04:37.492Z,16.20
2022-09-12T01:05:37.467Z,16.12
2022-09-12T01:06:37.477Z,16.09
2022-09-12T01:07:40.089Z,16.20
2022-09-12T01:08:37.475Z,16.11
2022-09-12T01:09:37.477Z,16.11
2022-09-12T01:10:37.496Z,16.08
2022-09-12T01:11:37.491Z,16.09
2022-09-12T01:12:37.484Z,16.12
2022-09-12T01:13:37.471Z,16.04
2022-09-12T01:14:37.485Z,16.07
2022-09-12T01:15:37.475Z,15.97
2022-09-12T01:16:37.583Z,16.00
2022-09-12T01:17:37.478Z,16.08
2022-09-12T01:18:37.489Z,16.00
2022-09-12T01:19:37.492Z,16.09
2022-09-12T01:20:37.485Z,16.02
2022-09-12T01:21:37.491Z,16.00
2022-09-12T01:22:37.500Z,16.02
2022-09-12T01:23:37.499Z,15.93
2022-09-12T01:24:37.501Z,16.01
2022-09-12T01:25:37.497Z,16.01
2022-09-12T01:26:37.514Z,16.02
2022-09-12T01:27:37.517Z,16.00
2022-09-12T01:28:37.504Z,16.00
2022-09-12T01:29:37.495Z,15.97
2022-09-12T01:30:37.516Z,15.93
2022-09-12T01:31:37.505Z,15.94
2022-09-12T01:32:37.511Z,15.94
2022-09-12T01:33:37.518Z,15.97
2022-09-12T01:34:37.510Z,16.00
2022-09-12T01:35:37.521Z,15.92
2022-09-12T01:36:37.520Z,15.97
2022-09-12T01:37:37.519Z,15.92
2022-09-12T01:38:37.518Z,15.97
2022-09-12T01:39:37.576Z,15.92
2022-09-12T01:40:37.531Z,15.97
2022-09-12T01:41:37.505Z,15.96
2022-09-12T01:42:37.523Z,15.90
2022-09-12T01:43:37.509Z,15.94
2022-09-12T01:44:37.583Z,15.84
2022-09-12T01:45:37.590Z,15.92
2022-09-12T01:46:37.536Z,15.87
2022-09-12T01:47:37.512Z,15.86
2022-09-12T01:48:37.525Z,15.80
2022-09-12T01:49:37.539Z,15.87
2022-09-12T01:50:37.529Z,15.80
2022-09-12T01:51:37.539Z,15.86
2022-09-12T01:52:37.551Z,15.80
2022-09-12T01:53:37.533Z,15.80
2022-09-12T01:54:37.547Z,15.72
2022-09-12T01:55:37.549Z,15.76
2022-09-12T01:56:37.550Z,15.76
2022-09-12T01:57:37.565Z,15.67
2022-09-12T01:58:37.531Z,15.68
2022-09-12T01:59:37.537Z,15.72
2022-09-12T02:00:37.534Z,15.65
2022-09-12T02:01:37.543Z,15.62
2022-09-12T02:02:37.572Z,15.53
2022-09-12T02:03:37.551Z,15.54
2022-09-12T02:04:37.543Z,15.54
2022-09-12T02:05:37.540Z,15.53
2022-09-12T02:06:37.546Z,15.60
2022-09-12T02:07:37.550Z,15.53
2022-09-12T02:08:37.565Z,15.51
2022-09-12T02:09:37.545Z,15.50
2022-09-12T02:10:37.566Z,15.54
2022-09-12T02:11:37.555Z,15.51
2022-09-12T02:12:37.589Z,15.56
2022-09-12T02:13:37.551Z,15.47
2022-09-12T02:14:37.557Z,15.54
2022-09-12T02:15:37.570Z,15.50
2022-09-12T02:16:37.587Z,15.46
2022-09-12T02:17:37.560Z,15.50
2022-09-12T02:18:37.563Z,15.44
2022-09-12T02:19:37.568Z,15.53
2022-09-12T02:20:48.041Z,15.50
2022-09-12T02:21:37.559Z,15.50
2022-09-12T02:22:37.587Z,15.41
2022-09-12T02:23:37.574Z,15.53
2022-09-12T02:24:37.561Z,15.41
2022-09-12T02:25:37.568Z,15.41
2022-09-12T02:26:37.567Z,15.38
2022-09-12T02:27:37.579Z,15.36
2022-09-12T02:28:37.580Z,15.38
2022-09-12T02:29:37.581Z,15.34
2022-09-12T02:30:37.606Z,15.21
2022-09-12T02:31:37.579Z,15.17
2022-09-12T02:32:37.579Z,15.25
2022-09-12T02:33:37.592Z,15.21
2022-09-12T02:34:37.590Z,15.14
2022-09-12T02:35:37.588Z,15.19
2022-09-12T02:36:37.581Z,15.11
2022-09-12T02:37:37.584Z,15.19
2022-09-12T02:38:37.576Z,15.17
2022-09-12T02:39:38.847Z,15.16
2022-09-12T02:40:37.600Z,15.11
2022-09-12T02:41:37.584Z,15.17
2022-09-12T02:42:37.582Z,15.16
2022-09-12T02:43:37.588Z,15.11
2022-09-12T02:44:37.581Z,15.13
2022-09-12T02:45:37.633Z,15.16
2022-09-12T02:46:37.590Z,15.17
2022-09-12T02:47:37.586Z,15.17
2022-09-12T02:48:37.581Z,15.17
2022-09-12T02:49:37.585Z,15.19
2022-09-12T02:50:37.612Z,15.16
2022-09-12T02:51:37.608Z,15.17
2022-09-12T02:52:37.588Z,15.19
2022-09-12T02:53:37.610Z,15.17
2022-09-12T02:54:37.602Z,15.17
2022-09-12T02:55:37.591Z,15.19
2022-09-12T02:56:37.627Z,15.19
2022-09-12T02:57:37.591Z,15.17
2022-09-12T02:58:37.607Z,15.19
2022-09-12T02:59:37.603Z,15.16
2022-09-12T03:00:37.596Z,15.16
2022-09-12T03:01:37.641Z,15.17
2022-09-12T03:02:37.608Z,15.13
2022-09-12T03:03:42.681Z,15.17
2022-09-12T03:04:37.617Z,15.19
2022-09-12T03:05:37.603Z,15.17
2022-09-12T03:06:37.600Z,15.19
2022-09-12T03:07:37.630Z,15.13
2022-09-12T03:08:37.615Z,15.11
2022-09-12T03:09:37.628Z,15.14
2022-09-12T03:10:37.622Z,15.16
2022-09-12T03:11:37.624Z,15.16
2022-09-12T03:12:37.608Z,15.03
2022-09-12T03:13:37.643Z,15.16
2022-09-12T03:14:37.620Z,15.06
2022-09-12T03:15:37.623Z,15.13
2022-09-12T03:16:37.633Z,15.07
2022-09-12T03:17:37.623Z,15.13
2022-09-12T03:18:37.624Z,15.11
2022-09-12T03:19:37.612Z,15.16
2022-09-12T03:20:37.633Z,15.19
2022-09-12T03:21:37.622Z,15.13
2022-09-12T03:22:37.625Z,15.13
2022-09-12T03:23:37.650Z,15.10
2022-09-12T03:24:37.627Z,15.10
2022-09-12T03:25:37.629Z,15.09
2022-09-12T03:26:37.637Z,15.14
2022-09-12T03:27:37.623Z,15.14
2022-09-12T03:28:37.632Z,15.16
2022-09-12T03:29:37.652Z,15.14
2022-09-12T03:30:37.707Z,15.13
2022-09-12T03:31:37.636Z,15.14
2022-09-12T03:32:37.638Z,15.13
2022-09-12T03:33:37.655Z,15.11
2022-09-12T03:34:37.639Z,15.07
2022-09-12T03:35:37.641Z,15.07
2022-09-12T03:36:37.647Z,15.11
2022-09-12T03:37:37.646Z,15.09
2022-09-12T03:38:37.634Z,15.07
2022-09-12T03:39:37.678Z,15.10
2022-09-12T03:40:37.638Z,15.02
2022-09-12T03:41:37.643Z,14.98
2022-09-12T03:42:37.636Z,15.07
2022-09-12T03:43:37.646Z,15.06
2022-09-12T03:44:37.653Z,15.07
2022-09-12T03:45:37.724Z,15.09
2022-09-12T03:46:37.637Z,15.02
2022-09-12T03:47:37.646Z,14.99
2022-09-12T03:48:37.639Z,14.98
2022-09-12T03:49:37.649Z,15.02
2022-09-12T03:50:37.652Z,14.98
2022-09-12T03:51:37.671Z,14.91
2022-09-12T03:52:37.658Z,14.94
2022-09-12T03:53:37.646Z,14.96
2022-09-12T03:54:37.646Z,15.01
2022-09-12T03:55:37.663Z,15.02
2022-09-12T03:56:37.784Z,14.95
2022-09-12T03:57:37.641Z,14.98
2022-09-12T03:58:37.647Z,14.99
2022-09-12T03:59:37.683Z,14.92
2022-09-12T04:00:37.677Z,14.84
2022-09-12T04:01:37.668Z,14.94
2022-09-12T04:02:37.672Z,14.92
2022-09-12T04:03:37.647Z,14.91
2022-09-12T04:04:37.658Z,14.86
2022-09-12T04:05:37.677Z,14.81
2022-09-12T04:06:37.664Z,14.81
2022-09-12T04:07:37.690Z,14.88
2022-09-12T04:08:37.665Z,14.94
2022-09-12T04:09:37.665Z,14.86
2022-09-12T04:10:37.667Z,14.83
2022-09-12T04:11:37.656Z,14.84
2022-09-12T04:12:37.668Z,14.84
2022-09-12T04:13:37.678Z,14.86
2022-09-12T04:14:37.674Z,14.86
2022-09-12T04:15:37.657Z,14.84
2022-09-12T04:16:37.697Z,14.83
2022-09-12T04:17:37.666Z,14.92
2022-09-12T04:18:37.673Z,14.86
2022-09-12T04:19:37.687Z,14.80
2022-09-12T04:20:37.671Z,14.78
2022-09-12T04:21:37.661Z,14.80
2022-09-12T04:22:37.693Z,14.84
2022-09-12T04:23:37.673Z,14.80
2022-09-12T04:24:37.676Z,14.78
2022-09-12T04:25:37.686Z,14.77
2022-09-12T04:26:37.675Z,14.80
2022-09-12T04:27:37.682Z,14.69
2022-09-12T04:28:37.696Z,14.81
2022-09-12T04:29:37.681Z,14.73
2022-09-12T04:30:37.745Z,14.77
2022-09-12T04:31:37.671Z,14.68
2022-09-12T04:32:37.686Z,14.77
2022-09-12T04:33:37.668Z,14.73
2022-09-12T04:34:37.689Z,14.65
2022-09-12T04:35:37.681Z,14.73
2022-09-12T04:36:37.692Z,14.69
2022-09-12T04:37:37.694Z,14.64
2022-09-12T04:38:37.690Z,14.62
2022-09-12T04:39:37.714Z,14.61
2022-09-12T04:40:37.680Z,14.61
2022-09-12T04:41:37.695Z,14.60
2022-09-12T04:42:37.686Z,14.64
2022-09-12T04:43:37.682Z,14.57
2022-09-12T04:44:37.684Z,14.58
2022-09-12T04:45:37.795Z,14.61
2022-09-12T04:46:37.708Z,14.54
2022-09-12T04:47:37.700Z,14.60
2022-09-12T04:48:37.695Z,14.50
2022-09-12T04:49:37.703Z,14.52
2022-09-12T04:50:37.682Z,14.45
2022-09-12T04:51:37.684Z,14.50
2022-09-12T04:52:37.697Z,14.46
2022-09-12T04:53:37.699Z,14.35
2022-09-12T04:54:37.699Z,14.37
2022-09-12T04:55:37.687Z,14.37
2022-09-12T04:56:37.699Z,14.39
2022-09-12T04:57:37.720Z,14.33
2022-09-12T04:58:37.691Z,14.24
2022-09-12T04:59:37.705Z,14.28
2022-09-12T05:00:37.757Z,14.20
2022-09-12T05:01:37.741Z,14.18
2022-09-12T05:02:37.742Z,14.12
2022-09-12T05:03:37.748Z,14.18
2022-09-12T05:04:37.713Z,14.10
2022-09-12T05:05:45.307Z,14.15
2022-09-12T05:06:37.706Z,14.18
2022-09-12T05:07:37.735Z,14.03
2022-09-12T05:08:37.728Z,14.04
2022-09-12T05:09:37.711Z,14.03
2022-09-12T05:10:37.695Z,14.03
2022-09-12T05:12:02.742Z,14.10
2022-09-12T05:12:37.713Z,14.00
2022-09-12T05:13:37.697Z,14.03
2022-09-12T05:14:37.726Z,14.18
2022-09-12T05:15:37.714Z,14.12
2022-09-12T05:16:37.752Z,14.15
2022-09-12T05:17:37.711Z,14.17
2022-09-12T05:18:37.703Z,14.25
2022-09-12T05:19:37.724Z,14.21
2022-09-12T05:20:37.735Z,14.25
2022-09-12T05:21:37.704Z,14.15
2022-09-12T05:22:37.748Z,14.29
2022-09-12T05:23:37.704Z,14.24
2022-09-12T05:24:37.708Z,14.27
2022-09-12T05:25:37.727Z,14.32
2022-09-12T05:26:37.714Z,14.35
2022-09-12T05:27:37.724Z,14.25
2022-09-12T05:28:37.720Z,14.32
2022-09-12T05:29:37.708Z,14.28
2022-09-12T05:30:37.731Z,14.32
2022-09-12T05:31:37.723Z,14.32
2022-09-12T05:32:37.718Z,14.33
2022-09-12T05:33:37.723Z,14.37
2022-09-12T05:34:37.721Z,14.36
2022-09-12T05:35:37.714Z,14.46
2022-09-12T05:36:37.729Z,14.43
2022-09-12T05:37:37.739Z,14.54
2022-09-12T05:38:37.733Z,14.54
2022-09-12T05:39:37.800Z,14.55
2022-09-12T05:40:37.719Z,14.54
2022-09-12T05:41:37.730Z,14.61
2022-09-12T05:42:37.730Z,14.60
2022-09-12T05:43:37.737Z,14.68
2022-09-12T05:44:37.714Z,14.62
2022-09-12T05:45:37.764Z,14.62
2022-09-12T05:46:37.756Z,14.69
2022-09-12T05:47:37.721Z,14.78
2022-09-12T05:48:37.729Z,14.68
2022-09-12T05:49:37.724Z,14.81
2022-09-12T05:50:37.729Z,14.86
2022-09-12T05:51:37.726Z,14.94
2022-09-12T05:52:37.734Z,14.81
2022-09-12T05:53:37.743Z,14.86
2022-09-12T05:54:37.736Z,14.94
2022-09-12T05:55:37.746Z,14.94
2022-09-12T05:56:37.729Z,14.98
2022-09-12T05:57:37.761Z,15.01
2022-09-12T05:58:37.761Z,15.01
2022-09-12T05:59:37.781Z,15.11
2022-09-12T06:00:37.735Z,15.17
2022-09-12T06:01:37.788Z,15.28
2022-09-12T06:02:37.775Z,15.35
2022-09-12T06:03:37.744Z,15.44
2022-09-12T06:04:37.731Z,15.41
2022-09-12T06:05:37.748Z,15.54
2022-09-12T06:06:37.744Z,15.64
2022-09-12T06:07:37.747Z,15.71
2022-09-12T06:08:37.746Z,15.76
2022-09-12T06:09:37.757Z,15.84
2022-09-12T06:10:37.739Z,15.96
2022-09-12T06:11:37.738Z,16.05
2022-09-12T06:12:37.753Z,16.15
2022-09-12T06:13:37.743Z,16.17
2022-09-12T06:14:37.761Z,16.25
2022-09-12T06:15:37.746Z,16.35
2022-09-12T06:16:37.836Z,16.43
2022-09-12T06:17:37.753Z,16.46
2022-09-12T06:18:37.766Z,16.53
2022-09-12T06:19:37.812Z,16.63
2022-09-12T06:20:37.744Z,16.75
2022-09-12T06:21:37.789Z,16.89
2022-09-12T06:22:37.753Z,16.91
2022-09-12T06:23:37.755Z,16.98
2022-09-12T06:24:37.762Z,17.15
2022-09-12T06:25:37.747Z,17.25
2022-09-12T06:26:37.756Z,17.28
2022-09-12T06:27:37.762Z,17.55
2022-09-12T06:28:37.758Z,17.64
2022-09-12T06:29:37.770Z,17.86
2022-09-12T06:30:37.895Z,17.99
2022-09-12T06:31:37.777Z,18.05
2022-09-12T06:32:37.781Z,18.33
2022-09-12T06:33:37.792Z,18.41
2022-09-12T06:34:37.792Z,18.60
2022-09-12T06:35:37.780Z,18.76
2022-09-12T06:36:37.771Z,19.00
2022-09-12T06:37:37.787Z,19.28
2022-09-12T06:38:37.788Z,19.46
2022-09-12T06:39:37.843Z,19.71
2022-09-12T06:40:37.775Z,19.96
2022-09-12T06:41:42.984Z,20.16
2022-09-12T06:42:37.778Z,20.42
2022-09-12T06:43:37.797Z,20.66
2022-09-12T06:44:37.804Z,20.99
2022-09-12T06:45:37.856Z,21.42
2022-09-12T06:46:37.796Z,21.54
2022-09-12T06:47:37.791Z,22.00
2022-09-12T06:48:41.774Z,22.30
2022-09-12T06:49:37.809Z,22.64
2022-09-12T06:50:37.827Z,22.64
2022-09-12T06:51:37.816Z,22.85
2022-09-12T06:52:37.812Z,22.95
2022-09-12T06:53:37.842Z,23.10
2022-09-12T06:54:37.831Z,23.09
2022-09-12T06:55:37.833Z,23.20
2022-09-12T06:56:37.819Z,23.38
2022-09-12T06:57:37.845Z,23.58
2022-09-12T06:58:37.837Z,23.93
2022-09-12T06:59:37.871Z,24.05
2022-09-12T07:00:37.842Z,24.21
2022-09-12T07:01:38.036Z,24.40
2022-09-12T07:02:37.869Z,24.37
2022-09-12T07:03:37.857Z,24.43
2022-09-12T07:04:37.848Z,24.53
2022-09-12T07:05:37.888Z,24.65
2022-09-12T07:06:37.886Z,24.58
2022-09-12T07:07:37.863Z,24.60
2022-09-12T07:08:37.896Z,24.57
2022-09-12T07:09:37.876Z,24.37
2022-09-12T07:10:37.868Z,24.27
2022-09-12T07:11:37.908Z,23.95
2022-09-12T07:12:37.878Z,23.73
2022-09-12T07:13:37.879Z,23.42
2022-09-12T07:14:37.897Z,23.20
2022-09-12T07:15:37.903Z,23.05
2022-09-12T07:16:37.953Z,23.01
2022-09-12T07:17:37.955Z,23.01
2022-09-12T07:18:37.905Z,23.04
2022-09-12T07:19:37.904Z,23.28
2022-09-12T07:20:37.921Z,23.53
2022-09-12T07:21:37.937Z,23.95
2022-09-12T07:22:37.917Z,24.34
2022-09-12T07:23:37.934Z,24.69
2022-09-12T07:24:37.939Z,25.17
2022-09-12T07:25:37.940Z,25.42
2022-09-12T07:26:37.976Z,25.77
2022-09-12T07:27:37.952Z,25.92
2022-09-12T07:28:38.024Z,26.09
2022-09-12T07:29:38.222Z,26.40
2022-09-12T07:30:38.010Z,26.55
2022-09-12T07:31:37.960Z,26.72
2022-09-12T07:32:37.981Z,26.73
2022-09-12T07:33:38.001Z,26.77
2022-09-12T07:34:37.983Z,26.82
2022-09-12T07:35:38.031Z,26.88
2022-09-12T07:36:37.996Z,26.99
2022-09-12T07:37:38.004Z,27.21
2022-09-12T07:38:38.025Z,27.22
2022-09-12T07:39:38.106Z,27.25
2022-09-12T07:40:38.019Z,27.34
2022-09-12T07:41:38.015Z,27.44
2022-09-12T07:42:38.020Z,27.54
2022-09-12T07:43:38.066Z,27.41
2022-09-12T07:44:38.100Z,27.41
2022-09-12T07:45:38.048Z,27.41
2022-09-12T07:46:38.057Z,27.44
2022-09-12T07:47:38.059Z,27.43
2022-09-12T07:48:38.087Z,27.44
2022-09-12T07:49:38.078Z,27.34
2022-09-12T07:50:40.926Z,27.43
2022-09-12T07:51:38.086Z,27.41
2022-09-12T07:52:38.087Z,27.39
2022-09-12T07:53:38.099Z,27.49
2022-09-12T07:54:38.131Z,27.50
2022-09-12T07:55:38.113Z,27.46
2022-09-12T07:56:39.317Z,27.57
2022-09-12T07:57:38.117Z,27.41
2022-09-12T07:58:38.133Z,27.47
2022-09-12T07:59:51.892Z,27.44
2022-09-12T08:00:38.156Z,27.41
2022-09-12T08:01:38.178Z,27.41
2022-09-12T08:02:38.275Z,27.24
2022-09-12T08:03:38.168Z,27.18
2022-09-12T08:04:38.176Z,27.14
2022-09-12T08:05:38.202Z,27.07
2022-09-12T08:06:38.187Z,27.12
2022-09-12T08:07:38.201Z,27.14
2022-09-12T08:08:39.503Z,27.09
2022-09-12T08:09:38.210Z,27.13
2022-09-12T08:10:38.226Z,27.10
2022-09-12T08:11:38.232Z,27.17
2022-09-12T08:12:38.219Z,27.10
2022-09-12T08:13:38.276Z,27.14
2022-09-12T08:14:38.256Z,27.12
2022-09-12T08:15:38.276Z,27.09
2022-09-12T08:16:38.253Z,26.99
2022-09-12T08:17:38.263Z,27.03
2022-09-12T08:18:38.291Z,26.73
2022-09-12T08:19:38.275Z,26.40
2022-09-12T08:20:38.281Z,26.44
2022-09-12T08:21:38.291Z,26.47
2022-09-12T08:22:38.288Z,26.37
2022-09-12T08:23:38.331Z,26.29
2022-09-12T08:24:38.311Z,26.30
2022-09-12T08:25:38.314Z,26.23
2022-09-12T08:26:38.325Z,26.23
2022-09-12T08:27:38.330Z,26.29
2022-09-12T08:28:38.356Z,26.21
2022-09-12T08:29:38.381Z,26.18
2022-09-12T08:30:38.364Z,26.12
2022-09-12T08:31:38.356Z,26.06
2022-09-12T08:32:38.367Z,26.05
2022-09-12T08:33:38.379Z,25.94
2022-09-12T08:34:38.391Z,25.85
2022-09-12T08:35:38.390Z,25.90
2022-09-12T08:36:38.398Z,25.90
2022-09-12T08:37:38.401Z,25.94
2022-09-12T08:38:38.405Z,25.85
2022-09-12T08:39:38.501Z,25.73
2022-09-12T08:40:38.426Z,25.72
2022-09-12T08:41:38.433Z,25.62
2022-09-12T08:42:38.429Z,25.69
2022-09-12T08:43:38.435Z,25.58
2022-09-12T08:44:38.450Z,25.51
2022-09-12T08:45:38.516Z,25.64
2022-09-12T08:46:38.462Z,25.58
2022-09-12T08:47:38.470Z,25.50
2022-09-12T08:48:38.473Z,25.35
2022-09-12T08:49:38.477Z,25.39
2022-09-12T08:50:38.516Z,25.38
2022-09-12T08:51:38.500Z,25.32
2022-09-12T08:52:38.506Z,25.28
2022-09-12T08:53:38.509Z,25.27
2022-09-12T08:54:38.515Z,25.25
2022-09-12T08:55:38.533Z,25.21
2022-09-12T08:56:38.540Z,25.32
2022-09-12T08:57:38.547Z,25.38
2022-09-12T08:58:39.405Z,25.35
2022-09-12T08:59:38.563Z,25.28
2022-09-12T09:00:38.554Z,25.28
2022-09-12T09:01:38.611Z,25.38
2022-09-12T09:02:38.592Z,25.40
2022-09-12T09:03:38.581Z,25.45
2022-09-12T09:04:38.578Z,25.46
2022-09-12T09:05:38.594Z,25.47
2022-09-12T09:06:38.611Z,25.51
2022-09-12T09:07:38.596Z,25.33
2022-09-12T09:08:38.605Z,25.38
2022-09-12T09:09:38.616Z,25.36
2022-09-12T09:10:38.618Z,25.33
2022-09-12T09:11:38.633Z,25.17
2022-09-12T09:12:38.631Z,25.06
2022-09-12T09:13:38.628Z,24.84
2022-09-12T09:14:38.657Z,24.77
2022-09-12T09:15:38.679Z,24.57
2022-09-12T09:16:38.678Z,24.37
2022-09-12T09:17:38.647Z,24.27
2022-09-12T09:18:38.681Z,24.10
2022-09-12T09:19:38.749Z,24.02
2022-09-12T09:20:38.669Z,24.12
2022-09-12T09:21:38.685Z,24.16
2022-09-12T09:22:38.677Z,24.10
2022-09-12T09:23:38.714Z,24.02
2022-09-12T09:24:38.726Z,24.10
2022-09-12T09:25:38.727Z,24.12
2022-09-12T09:26:38.731Z,24.08
2022-09-12T09:27:41.235Z,24.28
2022-09-12T09:28:38.715Z,24.27
2022-09-12T09:29:38.760Z,24.30
2022-09-12T09:30:38.813Z,24.40
2022-09-12T09:33:19.397Z,24.49
2022-09-12T09:34:27.034Z,24.45
2022-09-12T09:35:27.568Z,24.40
2022-09-12T09:36:26.949Z,24.24
2022-09-12T09:37:19.441Z,24.21
2022-09-12T09:38:20.076Z,24.13
2022-09-12T09:39:19.414Z,24.15
2022-09-12T09:40:19.570Z,24.09
2022-09-12T09:41:19.436Z,23.98
2022-09-12T09:42:19.607Z,23.85
2022-09-12T09:43:19.444Z,23.60
2022-09-12T09:44:19.462Z,23.47
2022-09-12T09:45:19.450Z,23.50
2022-09-12T09:46:19.537Z,23.32
2022-09-12T09:47:19.515Z,23.23
2022-09-12T09:48:19.488Z,23.31
2022-09-12T09:49:19.486Z,23.38
2022-09-12T09:50:19.480Z,23.53
2022-09-12T09:51:19.498Z,23.61
2022-09-12T09:52:19.499Z,23.73
2022-09-12T09:53:19.524Z,24.00
2022-09-12T09:54:19.537Z,24.10
2022-09-12T09:55:19.538Z,24.37
2022-09-12T09:56:23.220Z,24.64
2022-09-12T09:57:19.552Z,24.77
2022-09-12T09:58:19.547Z,25.06
2022-09-12T09:59:19.548Z,25.38
2022-09-12T10:00:19.569Z,25.58
2022-09-12T10:01:19.614Z,25.54
2022-09-12T10:02:23.665Z,25.57
2022-09-12T10:03:19.583Z,25.57
2022-09-12T10:04:19.639Z,25.58
2022-09-12T10:05:19.708Z,25.58
2022-09-12T10:06:19.609Z,25.45
2022-09-12T10:07:19.657Z,25.24
2022-09-12T10:08:19.669Z,25.23
2022-09-12T10:09:19.632Z,25.06
2022-09-12T10:10:19.642Z,24.93
2022-09-12T10:11:19.728Z,24.68
2022-09-12T10:12:19.661Z,24.61
2022-09-12T10:13:19.673Z,24.47
2022-09-12T10:14:19.703Z,24.37
2022-09-12T10:15:19.682Z,24.35
2022-09-12T10:16:19.753Z,24.30
2022-09-12T10:17:19.723Z,24.10
2022-09-12T10:18:19.706Z,23.98
2022-09-12T10:19:19.731Z,23.83
2022-09-12T10:20:21.981Z,23.70
2022-09-12T10:21:19.753Z,23.68
2022-09-12T10:22:19.760Z,23.63
2022-09-12T10:23:19.764Z,23.58
2022-09-12T10:24:19.769Z,23.58
2022-09-12T10:25:19.774Z,23.39
2022-09-12T10:26:19.799Z,23.22
2022-09-12T10:27:19.811Z,23.22
2022-09-12T10:28:19.795Z,23.09
2022-09-12T10:29:19.806Z,23.09
2022-09-12T10:30:19.813Z,23.12
2022-09-12T10:31:19.869Z,23.07
2022-09-12T10:32:19.825Z,23.05
2022-09-12T10:33:19.830Z,23.05
2022-09-12T10:34:19.842Z,22.97
2022-09-12T10:35:19.827Z,22.92
2022-09-12T10:36:19.853Z,22.92
2022-09-12T10:37:19.867Z,23.46
2022-09-12T10:38:19.873Z,23.65
2022-09-12T10:39:20.550Z,24.30
2022-09-12T10:40:19.911Z,25.03
2022-09-12T10:41:19.895Z,25.51
2022-09-12T10:42:23.371Z,25.90
2022-09-12T10:43:19.908Z,26.28
2022-09-12T10:44:19.920Z,26.66
2022-09-12T10:45:19.941Z,26.99
2022-09-12T10:46:19.967Z,27.32
2022-09-12T10:47:19.928Z,27.49
2022-09-12T10:48:19.949Z,27.87
2022-09-12T10:49:19.956Z,27.28
2022-09-12T10:50:22.879Z,26.81
2022-09-12T10:51:19.986Z,26.54
2022-09-12T10:52:19.969Z,26.15
2022-09-12T10:53:19.991Z,25.87
2022-09-12T10:54:19.989Z,25.39
2022-09-12T10:55:20.014Z,25.13
2022-09-12T10:56:20.031Z,24.91
2022-09-12T10:57:20.033Z,24.76
2022-09-12T10:58:20.050Z,24.67
2022-09-12T10:59:20.457Z,24.53
2022-09-12T11:00:20.057Z,24.45
2022-09-12T11:01:20.128Z,24.39
2022-09-12T11:02:20.110Z,24.37
2022-09-12T11:03:20.080Z,24.39
2022-09-12T11:04:20.109Z,24.28
2022-09-12T11:05:22.735Z,24.31
2022-09-12T11:06:20.127Z,24.21
2022-09-12T11:07:20.146Z,24.10
2022-09-12T11:08:20.128Z,24.22
2022-09-12T11:09:20.137Z,24.65
2022-09-12T11:10:20.133Z,24.45
2022-09-12T11:11:20.169Z,24.28
2022-09-12T11:12:20.162Z,24.12
2022-09-12T11:13:20.169Z,24.12
2022-09-12T11:14:20.195Z,23.94
2022-09-12T11:15:20.178Z,23.70
2022-09-12T11:16:20.211Z,24.08
2022-09-12T11:17:20.197Z,24.50
2022-09-12T11:18:20.198Z,24.88
2022-09-12T11:19:20.279Z,24.87
2022-09-12T11:20:20.229Z,25.10
2022-09-12T11:21:20.224Z,24.80
2022-09-12T11:22:20.250Z,24.65
2022-09-12T11:23:20.250Z,24.34
2022-09-12T11:24:20.286Z,24.35
2022-09-12T11:25:20.280Z,24.37
2022-09-12T11:26:20.271Z,24.68
2022-09-12T11:27:20.268Z,24.93
2022-09-12T11:28:20.278Z,25.35
2022-09-12T11:29:20.281Z,25.73
2022-09-12T11:30:20.341Z,25.98
2022-09-12T11:31:20.311Z,26.12
2022-09-12T11:32:20.374Z,26.28
2022-09-12T11:33:20.313Z,26.55
2022-09-12T11:34:20.368Z,26.85
2022-09-12T11:35:20.382Z,27.39
2022-09-12T11:36:20.331Z,27.78
2022-09-12T11:37:20.375Z,28.24
2022-09-12T11:38:20.358Z,28.55
2022-09-12T11:39:20.361Z,28.89
2022-09-12T11:40:20.413Z,29.28
2022-09-12T11:41:20.387Z,29.61
2022-09-12T11:42:20.502Z,29.92
2022-09-12T11:43:20.377Z,30.23
2022-09-12T11:44:20.392Z,30.65
2022-09-12T11:45:20.400Z,30.86
2022-09-12T11:46:20.460Z,30.76
2022-09-12T11:47:20.402Z,30.29
2022-09-12T11:48:20.425Z,29.82
2022-09-12T11:49:20.427Z,29.86
2022-09-12T11:50:20.424Z,29.87
2022-09-12T11:51:20.449Z,30.08
2022-09-12T11:52:20.440Z,30.32
2022-09-12T11:53:20.469Z,30.53
2022-09-12T11:54:20.450Z,30.70
2022-09-12T11:55:20.476Z,30.34
2022-09-12T11:56:20.479Z,29.98
2022-09-12T11:57:20.514Z,29.90
2022-09-12T11:58:20.501Z,30.01
2022-09-12T11:59:20.490Z,30.17
2022-09-12T12:00:20.505Z,30.35
2022-09-12T12:01:20.516Z,30.32
2022-09-12T12:02:20.567Z,30.13
2022-09-12T12:03:20.577Z,30.01
2022-09-12T12:04:20.608Z,29.85
2022-09-12T12:05:20.555Z,29.28
2022-09-12T12:06:20.543Z,28.90
2022-09-12T12:07:20.562Z,28.55
2022-09-12T12:08:20.588Z,28.36
2022-09-12T12:09:20.594Z,28.19
2022-09-12T12:10:20.570Z,28.17
2022-09-12T12:11:20.584Z,28.12
2022-09-12T12:12:20.599Z,28.03
2022-09-12T12:13:20.610Z,28.00
2022-09-12T12:14:20.626Z,27.94
2022-09-12T12:15:20.624Z,27.94
2022-09-12T12:16:20.688Z,27.90
2022-09-12T12:17:20.627Z,27.92
2022-09-12T12:18:20.632Z,27.87
2022-09-12T12:19:20.652Z,27.92
2022-09-12T12:20:20.646Z,27.94
2022-09-12T12:21:20.647Z,27.77
2022-09-12T12:22:20.676Z,27.47
2022-09-12T12:23:20.669Z,27.43
2022-09-12T12:24:20.701Z,27.40
2022-09-12T12:25:22.371Z,27.39
2022-09-12T12:26:20.707Z,27.41
2022-09-12T12:27:20.708Z,27.28
2022-09-12T12:28:20.707Z,27.25
2022-09-12T12:29:20.734Z,27.17
2022-09-12T12:30:20.715Z,27.03
2022-09-12T12:31:20.762Z,27.00
2022-09-12T12:32:20.734Z,26.97
2022-09-12T12:33:20.736Z,26.77
2022-09-12T12:34:20.754Z,26.54
2022-09-12T12:35:20.744Z,26.60
2022-09-12T12:36:20.785Z,26.48
2022-09-12T12:37:20.820Z,26.18
2022-09-12T12:38:20.765Z,26.15
2022-09-12T12:39:20.796Z,26.06
2022-09-12T12:40:20.885Z,25.92
2022-09-12T12:41:20.804Z,25.90
2022-09-12T12:42:22.449Z,25.83
2022-09-12T12:43:20.803Z,25.73
2022-09-12T12:44:20.817Z,25.45
2022-09-12T12:45:20.817Z,25.55
2022-09-12T12:46:20.871Z,25.45
2022-09-12T12:47:20.863Z,25.43
2022-09-12T12:48:20.832Z,25.58
2022-09-12T12:49:20.857Z,25.61
2022-09-12T12:50:21.071Z,25.58
2022-09-12T12:51:20.851Z,25.57
2022-09-12T12:52:20.887Z,25.55
2022-09-12T12:53:20.878Z,25.45
2022-09-12T12:54:20.882Z,25.21